Time;durP1;ratioP1;P1;durP2;ratioP2;P2;SDS_P1;SDS_P2;PMS_P1;PMS_P2;Temp;Humidity;BMP_temperature;BMP_pressure;BME280_temperature;BME280_humidity;BME280_pressure;Samples;Min_cycle;Max_cycle;Signal;HPM_P1;HPM_P2
2021/03/14 00:01:15;;;;;;;144.00;77.45;;;;;;;5.82;63.90;94965.69;5110065;28;20271;-71
2021/03/14 00:03:42;;;;;;;167.40;88.07;;;;;;;5.61;64.44;94950.59;5110867;28;20222;-72
2021/03/14 00:06:08;;;;;;;178.77;93.03;;;;;;;5.61;64.90;94958.41;5109929;28;20290;-70
2021/03/14 00:08:35;;;;;;;181.00;94.15;;;;;;;5.72;64.95;94955.03;5110532;28;20666;-69
2021/03/14 00:11:04;;;;;;;160.20;85.32;;;;;;;5.46;65.44;94952.81;5109811;28;20686;-70
2021/03/14 00:13:33;;;;;;;166.23;86.40;;;;;;;5.61;64.87;94943.59;5110665;28;20686;-67
2021/03/14 00:16:02;;;;;;;168.20;87.90;;;;;;;5.60;64.65;94938.63;5112087;28;20202;-69
2021/03/14 00:18:30;;;;;;;183.45;93.80;;;;;;;5.85;64.14;94934.06;5114882;28;20190;-69
2021/03/14 00:20:58;;;;;;;173.07;90.22;;;;;;;5.79;64.13;94934.91;5113744;28;20226;-69
2021/03/14 00:23:26;;;;;;;170.05;89.30;;;;;;;5.76;63.95;94933.56;5114139;28;20694;-66
2021/03/14 00:25:53;;;;;;;181.65;96.18;;;;;;;5.53;64.64;94924.94;5114086;28;20194;-70
2021/03/14 00:28:20;;;;;;;171.80;90.18;;;;;;;5.24;65.69;94931.75;5114312;28;20226;-69
2021/03/14 00:30:47;;;;;;;175.88;93.18;;;;;;;5.35;65.53;94917.19;5113755;28;20672;-68
2021/03/14 00:33:16;;;;;;;171.68;91.22;;;;;;;5.37;65.52;94921.16;5114551;28;20203;-69
2021/03/14 00:35:43;;;;;;;179.15;93.10;;;;;;;5.20;66.06;94925.41;5113623;28;20189;-69
2021/03/14 00:38:11;;;;;;;161.70;88.32;;;;;;;5.08;66.52;94927.97;5114266;28;20186;-70
2021/03/14 00:40:38;;;;;;;153.23;82.47;;;;;;;5.18;65.82;94911.06;5113487;28;20288;-69
2021/03/14 00:43:06;;;;;;;156.80;86.22;;;;;;;5.42;64.98;94915.31;5113930;28;20207;-71
2021/03/14 00:45:37;;;;;;;165.82;88.85;;;;;;;5.33;65.21;94917.44;5114006;28;20299;-71
2021/03/14 00:48:09;;;;;;;158.82;84.78;;;;;;;5.53;64.63;94911.97;5114203;28;20202;-71
2021/03/14 00:50:41;;;;;;;161.05;85.43;;;;;;;5.42;64.62;94912.72;5111900;28;20202;-71
2021/03/14 00:53:13;;;;;;;162.23;83.55;;;;;;;5.38;64.34;94908.97;5112240;28;20204;-69
2021/03/14 00:55:47;;;;;;;176.77;90.95;;;;;;;5.34;64.57;94900.03;5112175;28;20299;-69
2021/03/14 00:58:14;;;;;;;177.23;93.20;;;;;;;5.32;64.90;94909.84;5117910;28;20738;-70
2021/03/14 01:00:42;;;;;;;191.55;95.68;;;;;;;5.22;65.66;94896.63;5117141;28;20190;-67
2021/03/14 01:03:09;;;;;;;180.43;93.57;;;;;;;5.11;65.48;94919.75;5113755;28;20303;-67
2021/03/14 01:05:40;;;;;;;181.57;91.70;;;;;;;5.22;65.13;94914.81;5111027;28;20321;-70
2021/03/14 01:08:11;;;;;;;177.60;92.10;;;;;;;4.80;66.96;94906.19;5113673;28;20206;-69
2021/03/14 01:10:39;;;;;;;166.38;88.20;;;;;;;4.76;67.20;94903.22;5113291;28;20289;-66
2021/03/14 01:13:11;;;;;;;157.13;80.75;;;;;;;5.00;65.98;94904.91;5111693;28;20202;-70
2021/03/14 01:15:38;;;;;;;151.40;81.53;;;;;;;4.89;66.46;94905.66;5111844;28;20672;-70
2021/03/14 01:18:05;;;;;;;157.43;83.47;;;;;;;4.83;67.41;94909.16;5112204;28;20573;-67
2021/03/14 01:20:32;;;;;;;143.50;76.03;;;;;;;4.81;68.17;94911.16;5112764;28;20198;-69
2021/03/14 01:22:58;;;;;;;137.65;73.70;;;;;;;5.02;66.83;94913.28;5112893;28;20198;-68
2021/03/14 01:25:26;;;;;;;141.00;76.65;;;;;;;5.18;66.37;94900.69;5112629;28;20253;-71
2021/03/14 01:27:53;;;;;;;145.45;76.38;;;;;;;5.31;66.34;94895.31;5111942;28;20199;-70
2021/03/14 01:30:20;;;;;;;151.27;78.72;;;;;;;5.33;66.19;94898.47;5112825;27;20190;-69
2021/03/14 01:32:48;;;;;;;148.40;77.43;;;;;;;5.34;65.64;94900.03;5111524;28;20195;-70
2021/03/14 01:35:16;;;;;;;144.43;79.07;;;;;;;5.23;65.82;94899.00;5113059;28;20195;-69
2021/03/14 01:37:43;;;;;;;144.65;77.80;;;;;;;5.12;66.11;94891.97;5112886;28;20222;-70
2021/03/14 01:40:12;;;;;;;144.70;77.97;;;;;;;4.99;66.53;94902.53;5112985;28;20191;-73
2021/03/14 01:42:39;;;;;;;134.95;71.57;;;;;;;5.04;66.46;94894.88;5112623;28;20232;-71
2021/03/14 01:45:06;;;;;;;113.60;64.97;;;;;;;4.88;67.71;94896.28;5112305;28;20279;-73
2021/03/14 01:47:35;;;;;;;105.93;60.72;;;;;;;4.68;68.81;94895.75;5112647;28;20241;-68
2021/03/14 01:50:09;;;;;;;108.07;61.70;;;;;;;4.86;67.46;94882.72;5112391;28;20194;-70
2021/03/14 01:52:36;;;;;;;111.80;63.25;;;;;;;5.00;66.65;94891.91;5110972;28;20684;-71
2021/03/14 01:55:06;;;;;;;102.55;55.38;;;;;;;4.87;65.36;94889.50;5112128;28;20198;-70
2021/03/14 01:57:33;;;;;;;98.35;54.67;;;;;;;4.73;65.66;94893.28;5112535;28;20274;-71
2021/03/14 02:00:00;;;;;;;93.78;52.15;;;;;;;4.83;65.42;94898.75;5111962;28;20644;-69
2021/03/14 02:02:27;;;;;;;107.97;57.40;;;;;;;4.92;65.30;94892.25;5112166;28;20217;-71
2021/03/14 02:04:54;;;;;;;98.30;55.42;;;;;;;4.80;65.27;94885.44;5112453;28;20258;-68
2021/03/14 02:07:21;;;;;;;109.05;60.63;;;;;;;4.76;65.34;94892.84;5111796;28;20241;-70
2021/03/14 02:09:48;;;;;;;114.30;61.30;;;;;;;4.69;65.66;94899.91;5111968;28;20194;-71
2021/03/14 02:12:16;;;;;;;111.10;62.22;;;;;;;4.47;66.51;94900.59;5112687;28;20641;-70
2021/03/14 02:14:44;;;;;;;127.18;67.85;;;;;;;4.21;68.09;94893.91;5112047;28;20202;-70
2021/03/14 02:17:16;;;;;;;135.90;73.50;;;;;;;4.30;68.40;94890.03;5112096;28;20214;-70
2021/03/14 02:19:51;;;;;;;124.65;65.80;;;;;;;4.51;67.52;94889.56;5112022;28;20199;-72
2021/03/14 02:22:22;;;;;;;119.55;63.38;;;;;;;4.65;66.71;94895.41;5111662;28;20278;-67
2021/03/14 02:24:57;;;;;;;126.05;69.20;;;;;;;4.89;66.18;94887.47;5111615;28;20266;-67
2021/03/14 02:27:24;;;;;;;123.90;65.68;;;;;;;4.89;65.83;94889.31;5111954;28;20198;-70
2021/03/14 02:29:51;;;;;;;135.18;72.78;;;;;;;4.40;67.30;94892.88;5115075;28;20288;-70
2021/03/14 02:32:19;;;;;;;134.00;71.45;;;;;;;4.68;66.99;94884.56;5111846;28;20561;-71
2021/03/14 02:35:00;;;;;;;128.13;72.82;;;;;;;4.85;66.19;94893.34;5111670;28;20638;-70
2021/03/14 02:37:28;;;;;;;141.52;74.90;;;;;;;4.89;65.88;94892.66;5111573;28;20226;-69
2021/03/14 02:39:55;;;;;;;143.50;78.15;;;;;;;4.77;66.37;94884.06;5111033;28;20194;-66
2021/03/14 02:42:24;;;;;;;134.02;74.55;;;;;;;4.86;66.34;94880.13;5111398;28;20230;-66
2021/03/14 02:44:52;;;;;;;148.43;74.18;;;;;;;4.59;66.20;94837.38;5111665;28;20195;-69
2021/03/14 02:47:23;;;;;;;130.82;67.05;;;;;;;4.49;67.47;94881.19;5111744;28;20247;-67
2021/03/14 02:50:06;;;;;;;118.82;65.40;;;;;;;4.56;67.69;94887.09;5111195;28;20222;-69
2021/03/14 02:52:33;;;;;;;117.05;62.97;;;;;;;4.73;66.54;94893.28;5111130;28;20248;-66
2021/03/14 02:55:00;;;;;;;112.18;61.22;;;;;;;4.62;66.63;94870.66;5111106;28;20209;-65
2021/03/14 02:57:27;;;;;;;107.15;59.42;;;;;;;4.82;66.21;94897.16;5111332;28;20202;-70
2021/03/14 02:59:55;;;;;;;88.75;51.30;;;;;;;5.00;65.86;94889.31;5110829;28;20178;-66
2021/03/14 03:02:22;;;;;;;93.72;52.78;;;;;;;4.83;65.89;94872.00;5111077;28;20226;-67
2021/03/14 03:04:50;;;;;;;82.70;49.25;;;;;;;4.89;66.57;94884.88;5111085;28;20193;-67
2021/03/14 03:07:18;;;;;;;90.80;51.20;;;;;;;4.95;66.10;94886.59;5110721;28;20228;-68
2021/03/14 03:09:50;;;;;;;93.90;53.72;;;;;;;4.90;66.07;94880.50;5110923;28;20752;-69
2021/03/14 03:12:20;;;;;;;102.25;56.83;;;;;;;4.78;66.09;94875.25;5111399;28;20739;-69
2021/03/14 03:14:48;;;;;;;117.60;65.55;;;;;;;4.83;66.33;94872.00;5110813;28;20202;-68
2021/03/14 03:17:17;;;;;;;113.80;62.80;;;;;;;4.75;66.06;94870.50;5110870;28;20731;-71
2021/03/14 03:19:45;;;;;;;128.88;66.75;;;;;;;4.69;66.58;94855.03;5110930;28;20199;-66
2021/03/14 03:22:11;;;;;;;119.47;66.43;;;;;;;4.60;66.64;94866.72;5110556;28;21032;-67
2021/03/14 03:24:38;;;;;;;122.15;66.20;;;;;;;4.78;66.50;94874.47;5110792;28;20892;-72
2021/03/14 03:27:05;;;;;;;121.90;66.05;;;;;;;4.83;66.14;94872.81;5110919;28;20285;-71
2021/03/14 03:29:32;;;;;;;118.05;67.38;;;;;;;4.85;65.97;94868.16;5110509;28;20281;-73
2021/03/14 03:31:58;;;;;;;131.45;69.78;;;;;;;4.75;66.24;94875.69;5110681;28;20289;-72
2021/03/14 03:34:25;;;;;;;118.97;66.93;;;;;;;4.68;66.34;94874.19;5110972;28;20561;-70
2021/03/14 03:36:51;;;;;;;121.43;67.28;;;;;;;4.71;66.33;94869.34;5110845;28;20191;-74
2021/03/14 03:39:19;;;;;;;122.40;66.50;;;;;;;4.68;66.29;94869.78;5110648;28;20206;-70
2021/03/14 03:41:59;;;;;;;110.60;64.25;;;;;;;4.61;66.38;94858.72;5110630;28;20224;-72
2021/03/14 03:44:26;;;;;;;122.45;64.57;;;;;;;4.56;66.32;94863.75;5109314;28;20260;-66
2021/03/14 03:46:58;;;;;;;120.60;65.75;;;;;;;4.63;66.05;94859.28;5110873;28;20195;-71
2021/03/14 03:49:31;;;;;;;123.55;66.65;;;;;;;4.70;65.65;94854.00;5110437;28;20217;-72
2021/03/14 03:52:00;;;;;;;114.72;62.47;;;;;;;4.53;66.16;94850.41;5114820;28;20195;-67
2021/03/14 03:54:29;;;;;;;101.57;56.38;;;;;;;4.47;66.09;94846.13;5114412;28;20221;-67
2021/03/14 03:56:58;;;;;;;101.90;57.38;;;;;;;4.56;66.06;94860.38;5114936;28;20251;-70
2021/03/14 03:59:26;;;;;;;98.75;55.90;;;;;;;4.55;65.62;94854.38;5123880;28;20198;-65
2021/03/14 04:01:55;;;;;;;99.13;54.47;;;;;;;4.61;65.49;94858.72;5115760;28;20222;-67
2021/03/14 04:04:23;;;;;;;92.85;52.80;;;;;;;4.55;66.18;94858.78;5115101;28;20190;-67
2021/03/14 04:06:54;;;;;;;93.13;54.47;;;;;;;4.66;65.72;94861.44;5114617;28;20678;-70
2021/03/14 04:09:23;;;;;;;91.68;52.50;;;;;;;4.47;65.98;94857.28;5114314;28;20204;-70
2021/03/14 04:11:51;;;;;;;97.60;55.45;;;;;;;4.54;66.13;94860.59;5114599;28;20198;-68
2021/03/14 04:14:18;;;;;;;95.07;53.58;;;;;;;4.45;66.21;94854.13;5114390;28;20683;-71
2021/03/14 04:16:45;;;;;;;97.40;54.67;;;;;;;4.41;65.86;94842.59;5114562;28;20243;-68
2021/03/14 04:19:15;;;;;;;93.05;54.00;;;;;;;4.41;65.80;94852.97;5114415;28;20664;-69
2021/03/14 04:21:42;;;;;;;96.47;53.60;;;;;;;4.34;66.08;94854.06;5113817;28;20245;-70
2021/03/14 04:24:14;;;;;;;87.82;51.75;;;;;;;4.22;66.60;94843.63;5114161;28;20286;-68
2021/03/14 04:26:45;;;;;;;86.20;50.75;;;;;;;4.24;66.32;94828.63;5114038;28;20214;-66
2021/03/14 04:29:13;;;;;;;84.22;50.33;;;;;;;4.29;66.24;94841.72;5114400;28;20199;-68
2021/03/14 04:31:43;;;;;;;87.70;51.25;;;;;;;4.16;66.61;94828.91;5113760;28;20582;-65
2021/03/14 04:34:11;;;;;;;86.15;48.55;;;;;;;4.15;66.67;94829.94;5114427;28;20194;-70
2021/03/14 04:36:41;;;;;;;85.57;49.45;;;;;;;4.14;66.87;94838.75;5113970;28;20214;-70
2021/03/14 04:39:07;;;;;;;83.90;49.10;;;;;;;4.12;66.82;94827.78;5113866;28;20952;-70
2021/03/14 04:41:36;;;;;;;84.03;50.90;;;;;;;4.14;66.96;94841.34;5113698;28;20210;-67
2021/03/14 04:44:04;;;;;;;85.15;48.97;;;;;;;4.45;66.10;94838.56;5114014;28;20190;-66
2021/03/14 04:46:32;;;;;;;89.25;51.55;;;;;;;4.30;66.32;94827.78;5108079;28;20660;-70
2021/03/14 04:48:58;;;;;;;92.78;53.08;;;;;;;4.23;66.41;94828.84;5104837;28;20263;-67
2021/03/14 04:51:36;;;;;;;96.82;56.05;;;;;;;4.12;66.81;94830.38;5093135;28;20733;-67
2021/03/14 04:54:04;;;;;;;92.38;53.67;;;;;;;4.30;66.68;94830.38;5093216;28;20581;-69
2021/03/14 04:56:32;;;;;;;90.35;52.60;;;;;;;4.35;66.42;94827.91;5093191;28;20197;-70
2021/03/14 04:58:59;;;;;;;97.78;55.85;;;;;;;4.40;66.28;94832.44;5093253;28;20237;-67
2021/03/14 05:01:27;;;;;;;97.22;54.97;;;;;;;4.34;66.53;94834.13;5104109;28;20226;-71
2021/03/14 05:03:56;;;;;;;96.70;56.97;;;;;;;4.23;66.62;94829.66;5094676;28;20183;-71
2021/03/14 05:06:24;;;;;;;88.65;54.10;;;;;;;4.44;66.27;94830.97;5101549;28;20337;-69
2021/03/14 05:08:51;;;;;;;88.45;54.58;;;;;;;4.36;66.49;94826.88;5093059;28;20191;-68
2021/03/14 05:11:21;;;;;;;98.55;56.08;;;;;;;4.41;66.20;94832.22;5092345;28;20226;-69
2021/03/14 05:13:48;;;;;;;99.13;55.08;;;;;;;4.46;66.67;94832.34;5092864;28;20203;-67
2021/03/14 05:16:16;;;;;;;98.63;55.53;;;;;;;4.46;66.62;94837.53;5092517;28;20199;-69
2021/03/14 05:18:44;;;;;;;95.95;56.33;;;;;;;4.35;67.33;94829.69;5092675;28;21025;-68
2021/03/14 05:21:12;;;;;;;94.20;55.90;;;;;;;4.48;66.99;94827.75;5092125;28;20559;-73
2021/03/14 05:23:39;;;;;;;102.07;58.25;;;;;;;4.55;66.78;94823.25;5092856;28;20603;-70
2021/03/14 05:26:11;;;;;;;98.10;56.95;;;;;;;4.66;66.50;94813.94;5092315;28;20199;-68
2021/03/14 05:28:38;;;;;;;99.18;56.38;;;;;;;4.74;66.20;94822.22;5102257;28;20183;-65
2021/03/14 05:31:24;;;;;;;95.85;55.85;;;;;;;4.69;66.92;94829.84;5095850;28;20636;-66
2021/03/14 05:33:51;;;;;;;92.53;54.05;;;;;;;4.66;66.86;94825.09;5092189;28;20199;-68
2021/03/14 05:36:20;;;;;;;93.88;54.20;;;;;;;4.81;67.05;94817.72;5092306;28;20286;-68
2021/03/14 05:38:47;;;;;;;91.57;53.97;;;;;;;4.80;67.22;94815.34;5092382;28;20188;-72
2021/03/14 05:41:14;;;;;;;84.10;52.15;;;;;;;4.84;67.28;94819.84;5094336;28;20222;-71
2021/03/14 05:43:42;;;;;;;80.85;50.88;;;;;;;4.90;66.75;94825.97;5103684;28;20221;-71
2021/03/14 05:46:10;;;;;;;85.03;54.45;;;;;;;4.95;66.72;94818.31;5101195;28;20222;-67
2021/03/14 05:48:37;;;;;;;84.00;52.78;;;;;;;4.89;67.17;94840.75;5092548;28;20233;-72
2021/03/14 05:51:06;;;;;;;80.93;48.65;;;;;;;4.71;67.44;94822.63;5092358;28;20191;-68
2021/03/14 05:53:38;;;;;;;78.47;49.92;;;;;;;4.86;67.69;94819.63;5092194;28;20199;-70
2021/03/14 05:56:09;;;;;;;79.43;46.92;;;;;;;4.88;67.19;94808.03;5092448;28;20207;-71
2021/03/14 05:58:36;;;;;;;80.72;49.80;;;;;;;4.99;67.64;94819.44;5092234;28;20210;-66
2021/03/14 06:01:07;;;;;;;79.20;51.08;;;;;;;4.84;68.35;94814.66;5091753;28;20208;-67
2021/03/14 06:03:36;;;;;;;89.53;54.17;;;;;;;4.99;67.89;94830.63;5092224;28;20203;-69
2021/03/14 06:06:11;;;;;;;85.20;51.78;;;;;;;4.74;68.92;94817.03;5091620;28;20592;-69
2021/03/14 06:08:38;;;;;;;77.53;49.63;;;;;;;5.09;67.99;94825.66;5091646;28;20273;-66
2021/03/14 06:11:06;;;;;;;82.22;51.60;;;;;;;5.35;68.42;94814.06;5091332;28;20939;-72
2021/03/14 06:13:33;;;;;;;75.13;48.78;;;;;;;5.44;68.09;94817.91;5091437;28;20225;-71
2021/03/14 06:16:00;;;;;;;68.28;45.05;;;;;;;5.54;66.96;94817.38;5091988;28;20205;-69
2021/03/14 06:18:27;;;;;;;72.28;46.83;;;;;;;5.65;66.73;94803.59;5091615;28;20195;-66
2021/03/14 06:20:54;;;;;;;68.25;45.10;;;;;;;5.84;66.54;94818.06;5091692;28;20206;-68
2021/03/14 06:23:22;;;;;;;71.25;45.00;;;;;;;5.83;66.45;94817.28;5092008;28;20226;-67
2021/03/14 06:25:52;;;;;;;65.90;43.03;;;;;;;6.01;66.60;94824.16;5090837;28;20231;-71
2021/03/14 06:28:35;;;;;;;63.97;41.55;;;;;;;6.04;66.62;94813.28;5091635;28;20318;-65
2021/03/14 06:31:19;;;;;;;64.07;42.50;;;;;;;6.23;66.09;94819.94;5091244;28;20203;-66
2021/03/14 06:33:46;;;;;;;63.40;41.35;;;;;;;6.36;65.55;94822.28;5091866;28;20226;-66
2021/03/14 06:36:21;;;;;;;91.25;60.05;;;;;;;6.46;65.93;94822.44;5090999;28;20691;-66
2021/03/14 06:38:49;;;;;;;130.20;84.20;;;;;;;6.53;65.65;94822.34;5091436;28;20209;-67
2021/03/14 06:41:18;;;;;;;142.15;86.68;;;;;;;6.52;64.71;94818.94;5090886;28;20668;-68
2021/03/14 06:43:50;;;;;;;135.90;87.85;;;;;;;6.37;64.95;94818.63;5091421;28;20677;-71
2021/03/14 06:46:22;;;;;;;124.68;82.00;;;;;;;6.41;64.87;94819.75;5090653;28;20191;-69
2021/03/14 06:49:03;;;;;;;125.38;79.50;;;;;;;6.51;64.38;94824.38;5091368;28;20203;-71
2021/03/14 06:51:34;;;;;;;125.10;79.72;;;;;;;6.62;64.31;94819.13;5090580;28;20298;-69
2021/03/14 06:54:25;;;;;;;115.05;74.18;;;;;;;6.73;64.84;94822.72;5091072;28;20191;-69
2021/03/14 06:57:00;;;;;;;110.72;71.18;;;;;;;6.81;64.14;94810.09;5090831;28;20244;-73
2021/03/14 06:59:27;;;;;;;110.10;72.22;;;;;;;6.86;64.06;94818.00;5095005;28;20198;-68
2021/03/14 07:02:06;;;;;;;110.30;67.57;;;;;;;7.05;64.32;94811.56;5107192;27;20209;-69
2021/03/14 07:04:41;;;;;;;101.55;67.50;;;;;;;7.14;63.68;94814.56;5100519;28;21008;-68
2021/03/14 07:07:13;;;;;;;102.72;65.50;;;;;;;7.24;63.25;94808.75;5097821;28;20241;-67
2021/03/14 07:09:40;;;;;;;95.97;62.15;;;;;;;7.30;62.97;94815.63;5089346;28;20298;-66
2021/03/14 07:12:18;;;;;;;97.30;62.60;;;;;;;7.45;62.83;94805.41;5090003;28;20201;-67
2021/03/14 07:14:45;;;;;;;101.73;64.67;;;;;;;7.57;62.21;94814.72;5089304;28;20465;-70
2021/03/14 07:17:25;;;;;;;100.73;64.17;;;;;;;7.51;61.76;94817.50;5095912;28;20484;-67
2021/03/14 07:19:56;;;;;;;101.10;64.67;;;;;;;7.58;62.36;94789.44;5097156;28;20475;-67
2021/03/14 07:22:24;;;;;;;95.53;61.40;;;;;;;7.81;61.93;94804.91;5103374;28;20482;-71
2021/03/14 07:24:51;;;;;;;89.17;58.77;;;;;;;7.89;62.10;94801.88;5107672;28;20222;-71
2021/03/14 07:27:27;;;;;;;84.67;57.97;;;;;;;8.21;61.80;94789.78;5108542;28;20788;-70
2021/03/14 07:29:54;;;;;;;80.27;52.23;;;;;;;8.43;61.00;94798.41;5106143;28;20523;-69
2021/03/14 07:32:23;;;;;;;74.63;46.27;;;;;;;8.37;59.36;94788.16;5108735;28;20436;-70
2021/03/14 07:34:50;;;;;;;58.93;40.07;;;;;;;8.23;59.84;94769.44;5109057;28;20531;-69
2021/03/14 07:37:18;;;;;;;63.70;43.33;;;;;;;8.38;59.21;94790.53;5110692;28;20440;-68
2021/03/14 07:39:47;;;;;;;57.73;38.13;;;;;;;8.25;59.02;94785.66;5098725;28;20444;-69
2021/03/14 07:42:21;;;;;;;64.93;42.27;;;;;;;8.13;58.73;94775.34;5107679;28;20475;-71
2021/03/14 07:44:50;;;;;;;65.80;43.90;;;;;;;8.52;58.97;94773.44;5108768;28;20435;-70
2021/03/14 07:47:20;;;;;;;72.53;47.93;;;;;;;8.80;59.95;94757.53;5108722;28;20436;-72
2021/03/14 07:49:53;;;;;;;66.17;46.40;;;;;;;9.07;59.57;94773.19;5108739;28;20444;-71
2021/03/14 07:52:27;;;;;;;65.70;40.93;;;;;;;8.80;58.32;94767.19;5107465;28;20448;-70
2021/03/14 07:54:58;;;;;;;55.47;38.33;;;;;;;9.23;58.77;94767.84;5105991;28;20493;-71
2021/03/14 07:57:26;;;;;;;52.70;38.53;;;;;;;9.37;58.17;94763.00;5109137;28;20429;-67
2021/03/14 07:59:52;;;;;;;52.60;37.10;;;;;;;9.49;57.42;94755.75;5109277;28;20432;-71
2021/03/14 08:02:23;;;;;;;58.57;36.70;;;;;;;9.63;57.74;94746.44;5104075;28;20472;-69
2021/03/14 08:04:55;;;;;;;65.50;36.67;;;;;;;9.89;57.57;94745.50;5106733;28;20467;-70
2021/03/14 08:07:34;;;;;;;49.40;35.50;;;;;;;9.98;56.68;94743.22;5109731;28;20456;-69
2021/03/14 08:10:07;;;;;;;48.57;33.47;;;;;;;10.18;55.36;94735.50;5107852;28;20965;-70
2021/03/14 08:12:38;;;;;;;54.97;36.90;;;;;;;10.29;55.06;94724.00;5109789;28;20511;-68
2021/03/14 08:15:20;;;;;;;50.67;33.60;;;;;;;10.42;55.78;94728.75;5109892;28;20489;-72
2021/03/14 08:17:53;;;;;;;46.43;32.30;;;;;;;10.50;54.91;94719.59;5101649;28;20582;-69
2021/03/14 08:20:45;;;;;;;47.93;33.67;;;;;;;10.50;54.98;94723.00;5109737;28;20609;-69
2021/03/14 08:23:18;;;;;;;52.40;36.90;;;;;;;10.58;55.41;94712.03;5107277;28;21412;-70
2021/03/14 08:25:50;;;;;;;51.83;35.53;;;;;;;10.69;54.69;94724.06;5109627;28;20832;-68
2021/03/14 08:28:31;;;;;;;59.87;37.93;;;;;;;10.95;54.36;94723.06;5105900;28;20440;-70
2021/03/14 08:31:06;;;;;;;59.60;42.53;;;;;;;11.27;54.51;94719.41;5109205;28;20459;-70
2021/03/14 08:33:45;;;;;;;59.43;40.60;;;;;;;11.29;53.99;94719.94;5108672;28;20534;-68
2021/03/14 08:36:40;;;;;;;56.37;37.10;;;;;;;11.53;52.33;94726.97;5120070;28;20807;-66
2021/03/14 08:39:28;;;;;;;53.80;37.80;;;;;;;11.58;51.43;94720.94;5112686;28;20454;-67
2021/03/14 08:42:06;;;;;;;46.70;33.33;;;;;;;11.50;51.95;94716.22;5113161;28;20479;-71
2021/03/14 08:44:39;;;;;;;38.93;28.80;;;;;;;11.61;52.89;94710.69;5113823;28;20439;-71
2021/03/14 08:47:25;;;;;;;86.20;68.83;;;;;;;12.09;55.50;94706.66;5113853;28;22145;-72
2021/03/14 08:50:06;;;;;;;75.70;52.73;;;;;;;12.28;52.59;94710.22;5112475;28;20432;-71
2021/03/14 08:52:44;;;;;;;59.87;45.53;;;;;;;12.07;50.76;94703.50;5113954;28;20514;-77
2021/03/14 08:55:26;;;;;;;47.83;32.47;;;;;;;12.28;53.67;94710.22;5112573;28;20807;-73
2021/03/14 08:57:53;;;;;;;45.37;31.37;;;;;;;12.31;50.38;94707.09;5112510;28;20463;-74
2021/03/14 09:00:20;;;;;;;45.83;32.90;;;;;;;12.15;50.62;94695.84;5113837;28;20527;-70
2021/03/14 09:02:55;;;;;;;49.10;34.70;;;;;;;12.44;53.62;94693.38;5112201;28;21013;-71
2021/03/14 09:05:52;;;;;;;68.30;47.87;;;;;;;12.52;51.18;94671.75;5112140;28;20480;-69
2021/03/14 09:08:19;;;;;;;44.17;35.03;;;;;;;12.78;50.34;94696.81;5112439;28;20455;-69
2021/03/14 09:10:45;;;;;;;37.70;28.23;;;;;;;13.07;49.67;94692.44;5113499;28;20440;-71
2021/03/14 09:13:27;;;;;;;32.23;25.57;;;;;;;13.54;48.86;94686.47;5113681;28;20436;-71
2021/03/14 09:16:42;;;;;;;41.00;27.37;;;;;;;13.74;47.58;94688.16;5096375;28;21175;-72
2021/03/14 09:19:18;;;;;;;36.07;23.90;;;;;;;13.44;46.26;94681.34;5091577;28;20476;-68
2021/03/14 09:21:50;;;;;;;32.77;23.80;;;;;;;13.46;46.90;94673.16;5091167;28;20464;-71
2021/03/14 09:24:27;;;;;;;31.27;23.93;;;;;;;13.77;47.54;94674.41;5093050;28;20823;-72
2021/03/14 09:27:00;;;;;;;34.00;24.13;;;;;;;14.08;45.70;94671.16;5091270;28;21146;-72
2021/03/14 09:29:55;;;;;;;37.87;24.67;;;;;;;14.19;46.41;94669.19;5092855;28;20872;-75
2021/03/14 09:32:31;;;;;;;37.43;27.30;;;;;;;14.27;44.76;94665.16;5091229;28;21021;-76
2021/03/14 09:35:24;;;;;;;34.83;26.83;;;;;;;13.96;45.30;94662.06;5091517;28;20444;-77
2021/03/14 09:38:04;;;;;;;31.80;23.13;;;;;;;14.53;45.98;94661.09;5091964;28;20509;-70
2021/03/14 09:40:44;;;;;;;36.70;22.80;;;;;;;14.97;45.76;94646.47;5092592;28;20877;-72
2021/03/14 09:43:23;;;;;;;38.70;24.97;;;;;;;15.42;43.95;94652.09;5093392;28;20484;-68
2021/03/14 09:46:13;;;;;;;30.77;23.27;;;;;;;15.39;44.06;94647.34;5100573;28;20529;-69
2021/03/14 09:49:11;;;;;;;34.23;24.50;;;;;;;15.69;42.43;94641.56;5097000;28;20582;-70
2021/03/14 09:51:40;;;;;;;29.77;22.50;;;;;;;15.89;43.12;94647.22;5097237;28;20795;-70
2021/03/14 09:54:11;;;;;;;38.50;23.53;;;;;;;16.01;43.14;94639.59;5098134;28;20437;-72
2021/03/14 09:56:41;;;;;;;34.67;29.03;;;;;;;15.81;42.83;94624.16;5094600;28;20520;-74
2021/03/14 09:59:28;;;;;;;44.50;36.40;;;;;;;16.18;43.77;94623.16;5085398;28;20972;-73
2021/03/14 10:02:07;;;;;;;26.73;17.43;;;;;;;16.40;41.29;94620.56;5093700;28;20476;-73
2021/03/14 10:04:48;;;;;;;25.10;18.37;;;;;;;16.55;43.02;94628.16;5090965;28;20904;-70
2021/03/14 10:07:25;;;;;;;24.33;17.37;;;;;;;16.63;41.37;94624.81;5099511;28;20501;-71
2021/03/14 10:09:55;;;;;;;23.00;15.60;;;;;;;16.61;39.99;94621.69;5091028;28;20476;-69
2021/03/14 10:12:29;;;;;;;23.97;15.67;;;;;;;16.50;39.61;94620.34;5091208;28;20438;-72
2021/03/14 10:14:57;;;;;;;39.43;18.77;;;;;;;16.86;41.02;94615.81;5091005;28;20538;-74
2021/03/14 10:17:24;;;;;;;25.53;16.83;;;;;;;17.43;39.64;94600.88;5108282;28;20489;-76
2021/03/14 10:19:51;;;;;;;28.33;18.50;;;;;;;17.40;40.34;94595.41;5110989;28;20596;-76
2021/03/14 10:22:33;;;;;;;21.57;16.10;;;;;;;17.72;39.43;94598.53;5110488;28;20572;-73
2021/03/14 10:25:26;;;;;;;21.33;16.33;;;;;;;17.85;38.91;94592.34;5110916;28;20445;-70
2021/03/14 10:28:17;;;;;;;18.80;14.33;;;;;;;17.96;38.09;94582.25;5095087;28;20445;-72
2021/03/14 10:31:03;;;;;;;18.73;13.20;;;;;;;17.32;38.35;94582.94;5090109;28;21058;-73
2021/03/14 10:33:43;;;;;;;19.40;14.57;;;;;;;16.59;39.70;94586.81;5093310;28;20455;-73
2021/03/14 10:36:13;;;;;;;124.87;111.13;;;;;;;16.18;40.88;94584.25;5105376;28;20516;-75
2021/03/14 10:38:52;;;;;;;157.20;115.80;;;;;;;16.10;41.15;94578.91;5104867;28;20559;-74
2021/03/14 10:41:39;;;;;;;28.30;21.87;;;;;;;16.05;41.14;94576.38;5090130;28;20447;-80
2021/03/14 10:44:08;;;;;;;21.17;15.93;;;;;;;16.34;40.50;94563.56;5092931;28;21097;-71
2021/03/14 10:46:54;;;;;;;21.23;14.53;;;;;;;16.82;39.46;94558.50;5104881;28;20452;-74
2021/03/14 10:49:30;;;;;;;18.50;12.63;;;;;;;17.07;38.71;94548.06;5110306;28;20479;-73
2021/03/14 10:52:04;;;;;;;19.73;10.87;;;;;;;17.45;37.53;94537.00;5110177;28;20866;-69
2021/03/14 10:54:34;;;;;;;12.93;9.90;;;;;;;17.77;35.21;94536.69;5110319;28;20505;-75
2021/03/14 10:57:15;;;;;;;22.33;12.80;;;;;;;17.96;36.06;94523.94;5109935;28;20463;-70
2021/03/14 10:59:48;;;;;;;15.10;9.87;;;;;;;18.28;35.25;94520.06;5109787;28;20845;-70
2021/03/14 11:02:34;;;;;;;9.77;6.00;;;;;;;18.57;33.74;94517.59;5109480;28;20483;-71
2021/03/14 11:05:04;;;;;;;6.87;4.60;;;;;;;18.33;30.69;94512.72;5108706;28;20440;-68
2021/03/14 11:07:37;;;;;;;8.93;5.33;;;;;;;17.92;30.65;94504.44;5093668;28;20464;-75
2021/03/14 11:10:22;;;;;;;34.03;30.17;;;;;;;17.46;31.87;94498.84;5105718;28;20444;-69
2021/03/14 11:13:16;;;;;;;76.97;67.97;;;;;;;18.07;31.87;94503.97;5106921;28;20531;-73
2021/03/14 11:16:04;;;;;;;13.93;6.30;;;;;;;18.60;33.49;94490.41;5119771;27;21242;-70
2021/03/14 11:18:34;;;;;;;9.00;5.90;;;;;;;18.86;31.46;94483.97;5105073;28;20444;-69
2021/03/14 11:21:15;;;;;;;20.97;12.70;;;;;;;18.98;32.27;94470.81;5109309;27;20447;-73
2021/03/14 11:23:47;;;;;;;14.00;10.50;;;;;;;18.86;32.26;94475.22;5106316;28;20507;-70
2021/03/14 11:26:35;;;;;;;11.57;8.87;;;;;;;19.20;32.58;94470.56;5108700;28;20536;-71
2021/03/14 11:29:02;;;;;;;10.50;8.00;;;;;;;19.29;31.62;94459.91;5108682;28;20479;-71
2021/03/14 11:31:37;;;;;;;14.43;9.57;;;;;;;19.19;30.82;94455.75;5104888;28;20435;-69
2021/03/14 11:34:09;;;;;;;10.47;8.70;;;;;;;19.38;31.50;94454.59;5107832;28;20534;-70
2021/03/14 11:36:48;;;;;;;13.27;8.43;;;;;;;19.77;29.93;94449.66;5113110;28;20548;-68
2021/03/14 11:39:25;;;;;;;13.33;8.10;;;;;;;19.86;28.85;94441.63;5108991;28;20444;-73
2021/03/14 11:41:58;;;;;;;15.13;8.53;;;;;;;19.43;29.17;94438.47;5108583;28;20467;-71